Airfield :
LOGIN :

Register | Disclaimer

   EN    FR    IT 

 










Legend :    VFR   Marginal VFR   IFR   Intensive IFR   Very Intensive IFR
Visi :
Ceiling :
>= 8 km
>= 3000ft
5 to 8 km
1000 to 3000 ft
1500m to 5 km
500 to 1000 ft
800 to 1500m
200 to 500 ft
< 800m
< 200 ft
Symbols :   Thunderstorms  Fog  Heavy snow  Heavy precipitations  Wind > 20 kt
SIGMETs :     Misc.  Thunderstorms  Icing  Turbulence  Mountain Waves  Volcanic Ashes






- Airport Elevation : 218 ft
- IATA code : LBG


LFPB - Paris / Le Bourget

CURRENT METAR :
  • 290830Z AUTO 35008KT 320V020 9999 BKN033 BKN043 BKN052 13/04 Q1018 NOSIG

EXPIRED METARs :
  • 290800Z AUTO 36007KT 320V040 9999 BKN032 BKN042 13/05 Q1018 NOSIG
  • 290730Z AUTO 01008KT 320V040 9999 FEW029 12/05 Q1018 NOSIG
  • 290700Z AUTO 01008KT 340V050 CAVOK 12/05 Q1018 NOSIG
  • 290630Z AUTO 36007KT 330V030 CAVOK 11/06 Q1018 NOSIG
  • 290600Z AUTO 36007KT CAVOK 09/06 Q1018 NOSIG
  • 290530Z AUTO 36005KT 330V040 CAVOK 09/05 Q1018 NOSIG

TAF TAF LFPB
Valid from the 29 at 06:00 until the 30 at 06:00 UTC


290500Z 2906/3006 02006KT CAVOK
PROB30
TEMPO 2917/2919 02015G25KT -SHRA FEW050TCU
ATIS : +33 1 48 62 43 92



MET'MAP, your aeronautical weather chart ! - Copyright ORBIFLY December 2007 - Disclaimer

ORBIFLY MET'MAP TEAM :

Programming & Development : Alexandra Zaïnal
Original concept : Baudouin d'Aumeries
Technical & hardware support : Manuel Goepfert
Assistance : Marc-Olivier Méhu

Contact : metmap@orbifly.com




SOURCES & CREDITS :

   NOAA